Time;durP1;ratioP1;P1;durP2;ratioP2;P2;SDS_P1;SDS_P2;PMS_P1;PMS_P2;Temp;Humidity;BMP_temperature;BMP_pressure;BME280_temperature;BME280_humidity;BME280_pressure;Samples;Min_cycle;Max_cycle;Signal;HPM_P1;HPM_P2
2023/10/11 01:59:26;;;;;;;10.55;3.10;;;;;;;8.95;100.00;100834.72;10387739;22;21684;-80
2023/10/11 02:30:52;;;;;;;;;;;;;;;9.19;100.00;100900.47;10442931;28;20076;-79
2023/10/11 02:36:25;;;;;;;6.55;2.97;;;;;;;7.89;100.00;100711.34;10550388;28;19927;-80
2023/10/11 02:42:29;;;;;;;7.53;2.90;;;;;;;7.97;100.00;100712.31;10573387;27;20035;-81
2023/10/11 02:47:42;;;;;;;;;;;;;;;9.17;100.00;100896.28;10498272;28;20047;-80
2023/10/11 02:52:59;;;;;;;10.35;3.20;;;;;;;7.93;100.00;100725.97;10545422;28;19916;-81
2023/10/11 02:59:19;;;;;;;6.05;2.97;;;;;;;7.54;100.00;100665.19;10571777;28;20388;-80
2023/10/11 03:12:00;;;;;;;7.05;3.15;;;;;;;7.23;100.00;100646.81;10239203;28;20154;-80
2023/10/11 03:54:36;;;;;;;6.75;3.08;;;;;;;8.82;100.00;100954.22;10320920;28;20077;-84
2023/10/11 03:59:47;;;;;;;10.10;3.15;;;;;;;8.73;100.00;100944.47;10394149;28;20061;-82
2023/10/11 04:04:49;;;;;;;5.70;2.90;;;;;;;8.84;100.00;100970.81;10457598;28;20068;-72
2023/10/11 04:09:50;;;;;;;7.32;3.20;;;;;;;8.65;100.00;100944.38;10440277;28;20037;-78
2023/10/11 04:14:51;;;;;;;6.78;3.20;;;;;;;8.49;100.00;100928.19;10457449;28;20029;-82
2023/10/11 04:20:17;;;;;;;6.10;2.80;;;;;;;8.82;100.00;100999.28;10458568;28;20083;-77
2023/10/11 04:25:22;;;;;;;5.90;3.28;;;;;;;8.74;100.00;101007.09;10455113;28;20488;-76
2023/10/11 04:30:26;;;;;;;6.97;3.08;;;;;;;8.44;100.00;100974.47;10456889;28;20039;-82
2023/10/11 04:35:42;;;;;;;6.68;2.78;;;;;;;8.39;100.00;100975.88;10457494;28;20045;-80
2023/10/11 04:40:51;;;;;;;9.27;3.00;;;;;;;8.37;100.00;100986.53;10449665;28;20045;-81
2023/10/11 04:46:07;;;;;;;5.22;3.17;;;;;;;8.69;100.00;101054.34;10455921;28;20041;-77
2023/10/11 05:06:53;;;;;;;8.35;3.45;;;;;;;8.35;100.00;101051.22;10497834;28;20488;-76
2023/10/11 05:11:58;;;;;;;7.80;3.47;;;;;;;8.31;100.00;101052.44;10497106;28;20044;-76
2023/10/11 05:17:16;;;;;;;6.97;3.60;;;;;;;8.38;100.00;101070.34;10539050;28;20039;-76
2023/10/11 05:22:29;;;;;;;7.35;3.47;;;;;;;8.43;100.00;101072.56;10538336;28;20044;-76
2023/10/11 05:54:04;;;;;;;4.63;2.30;;;;;;;8.26;100.00;101062.63;10537693;28;20040;-76
2023/10/11 05:59:09;;;;;;;5.03;2.17;;;;;;;8.77;100.00;101123.38;10538359;28;20036;-75
2023/10/11 06:04:13;;;;;;;3.60;1.70;;;;;;;8.53;100.00;101091.16;10538102;28;20138;-76
2023/10/11 06:09:17;;;;;;;4.25;1.52;;;;;;;8.92;100.00;101142.38;10537045;28;20036;-75
2023/10/11 06:14:19;;;;;;;5.60;1.97;;;;;;;9.01;100.00;101138.06;10537754;28;20044;-75
2023/10/11 06:19:23;;;;;;;3.50;1.88;;;;;;;8.91;100.00;101098.28;10537412;28;20548;-75
2023/10/11 06:24:33;;;;;;;4.97;1.52;;;;;;;9.00;98.67;101116.00;10537243;28;20464;-76
2023/10/11 06:29:37;;;;;;;5.25;1.75;;;;;;;9.19;98.75;101143.50;10536594;28;20517;-76
2023/10/11 06:34:38;;;;;;;4.25;1.70;;;;;;;8.83;97.88;101093.69;10536513;28;20079;-76
2023/10/11 06:44:48;;;;;;;4.03;1.40;;;;;;;9.68;95.52;101152.25;10536860;28;20040;-75
2023/10/11 06:49:54;;;;;;;3.20;1.35;;;;;;;9.82;95.03;101138.53;10541788;28;20035;-76
2023/10/11 07:00:37;;;;;;;2.70;1.50;;;;;;;10.02;92.98;101126.88;10544185;28;20081;-75
2023/10/11 07:05:41;;;;;;;3.60;1.40;;;;;;;10.02;90.42;101126.88;10543134;28;20075;-76
2023/10/11 07:10:45;;;;;;;5.97;1.25;;;;;;;9.73;90.06;101067.78;10544377;28;20087;-76
2023/10/11 07:15:47;;;;;;;3.38;1.13;;;;;;;10.24;88.49;101117.72;10543904;28;20074;-76
2023/10/11 07:20:48;;;;;;;5.03;1.60;;;;;;;10.99;87.37;101151.28;10526318;28;20510;-76
2023/10/11 07:25:59;;;;;;;2.40;1.17;;;;;;;10.91;84.57;101106.84;10543959;28;20036;-76
2023/10/11 07:31:03;;;;;;;3.10;1.30;;;;;;;11.01;83.61;101067.75;10558775;28;20044;-74
2023/10/11 07:36:03;;;;;;;2.70;1.30;;;;;;;11.98;81.94;101132.47;10542987;28;20122;-74
2023/10/11 07:41:05;;;;;;;3.05;1.40;;;;;;;11.43;79.37;101073.22;10558468;28;20032;-74
2023/10/11 07:46:06;;;;;;;3.00;1.38;;;;;;;11.65;78.32;101101.13;10541973;28;20503;-75
2023/10/11 07:51:10;;;;;;;3.72;1.63;;;;;;;12.11;77.23;101122.22;10558476;28;20078;-74
2023/10/11 07:56:16;;;;;;;2.63;1.20;;;;;;;11.64;75.28;101019.63;10525661;22;20543;-74
2023/10/11 08:01:27;;;;;;;5.50;1.77;;;;;;;11.43;74.94;101035.97;10499315;28;20515;-74
2023/10/11 08:06:28;;;;;;;2.55;1.40;;;;;;;11.99;74.03;101131.47;10499631;28;20048;-74
2023/10/11 08:11:36;;;;;;;4.57;1.45;;;;;;;11.25;73.39;101076.88;10499420;28;20036;-74
2023/10/11 08:16:40;;;;;;;4.05;1.90;;;;;;;11.77;73.62;101143.47;10499127;28;20040;-76
2023/10/11 08:22:09;;;;;;;3.90;1.70;;;;;;;11.50;72.37;101088.56;10481329;28;20044;-75
2023/10/11 08:27:08;;;;;;;4.13;1.60;;;;;;;12.24;72.08;101165.25;10497890;28;20028;-75
2023/10/11 08:32:12;;;;;;;5.90;1.77;;;;;;;12.20;70.29;101089.28;10480202;28;20476;-74
2023/10/11 08:37:19;;;;;;;5.43;1.73;;;;;;;12.01;68.61;101033.63;10497780;28;20066;-74
2023/10/11 08:42:30;;;;;;;5.18;1.95;;;;;;;12.75;69.30;101098.66;10481242;28;20050;-74
2023/10/11 08:47:33;;;;;;;3.60;1.92;;;;;;;12.41;66.77;101085.38;10480044;28;20032;-73
2023/10/11 08:52:37;;;;;;;5.70;2.03;;;;;;;12.87;66.37;101158.66;10497455;28;20419;-74
2023/10/11 08:57:39;;;;;;;7.80;2.17;;;;;;;12.50;66.11;101129.72;10528438;28;20051;-76
2023/10/11 09:02:48;;;;;;;6.40;2.20;;;;;;;12.10;66.85;101166.66;10520883;28;20510;-73
2023/10/11 09:07:51;;;;;;;7.32;1.90;;;;;;;11.27;67.89;101090.88;10520870;28;20036;-74
2023/10/11 09:12:56;;;;;;;4.40;2.30;;;;;;;11.61;67.58;101106.94;10520106;28;20047;-73
2023/10/11 09:18:12;;;;;;;9.05;2.20;;;;;;;11.81;64.10;101108.38;10520711;28;20040;-73
2023/10/11 09:23:20;;;;;;;7.03;1.90;;;;;;;11.57;63.68;101100.25;10539114;28;20158;-74
2023/10/11 09:28:22;;;;;;;4.82;1.30;;;;;;;11.61;61.22;101118.41;10538153;28;20376;-72
2023/10/11 09:33:26;;;;;;;3.90;1.65;;;;;;;11.88;60.65;101157.38;10537775;28;20514;-75
2023/10/11 09:38:27;;;;;;;4.10;1.50;;;;;;;11.95;60.11;101175.41;10538614;28;20067;-73
2023/10/11 09:43:29;;;;;;;5.28;1.85;;;;;;;11.93;59.80;101183.53;10537701;28;20063;-74
2023/10/11 09:48:36;;;;;;;3.72;1.67;;;;;;;12.41;59.23;101128.84;10537347;28;20414;-74
2023/10/11 09:53:41;;;;;;;4.85;1.50;;;;;;;12.89;57.32;101099.81;10537260;28;20539;-74
2023/10/11 09:58:48;;;;;;;2.65;1.40;;;;;;;13.30;54.97;101190.59;10537816;28;20134;-73
2023/10/11 10:03:52;;;;;;;5.97;1.75;;;;;;;12.62;54.52;101165.72;10537264;28;20529;-74
2023/10/11 10:09:23;;;;;;;5.63;1.50;;;;;;;12.18;53.52;101155.22;10518829;28;20047;-74
2023/10/11 10:14:28;;;;;;;5.85;1.63;;;;;;;12.15;51.47;101171.53;10519617;28;20069;-75
2023/10/11 10:19:34;;;;;;;3.75;1.67;;;;;;;11.87;53.29;101089.13;10537218;28;20050;-73
2023/10/11 10:24:35;;;;;;;4.75;1.65;;;;;;;12.38;54.13;101145.16;10541390;28;20032;-73
2023/10/11 10:30:08;;;;;;;5.22;2.17;;;;;;;12.92;51.18;101211.50;10545896;28;20138;-73
2023/10/11 10:35:20;;;;;;;3.67;1.98;;;;;;;13.11;50.46;101205.06;10512345;28;20052;-75
2023/10/11 10:40:26;;;;;;;7.53;2.05;;;;;;;12.56;52.36;101110.41;10544461;28;20537;-74
2023/10/11 10:45:26;;;;;;;7.10;2.05;;;;;;;12.37;53.49;101113.34;10544793;28;20032;-74
2023/10/11 10:50:28;;;;;;;5.18;2.40;;;;;;;13.04;53.10;101188.84;10544673;28;20040;-74
2023/10/11 10:55:35;;;;;;;6.97;2.30;;;;;;;12.97;49.56;101140.66;10544788;28;20059;-74
2023/10/11 11:00:40;;;;;;;8.93;2.10;;;;;;;13.11;50.61;101128.53;10545011;28;20055;-73
2023/10/11 11:05:58;;;;;;;10.25;2.10;;;;;;;13.85;49.34;101225.50;10544047;28;20487;-74
2023/10/11 11:11:18;;;;;;;7.85;2.92;;;;;;;12.76;51.53;101105.63;10543247;28;20051;-74
2023/10/11 11:16:26;;;;;;;7.82;2.63;;;;;;;12.94;53.62;101210.34;10525706;28;20036;-73
2023/10/11 11:21:31;;;;;;;8.93;2.80;;;;;;;13.08;54.51;101264.91;10542771;28;20052;-73
2023/10/11 11:26:33;;;;;;;7.18;3.22;;;;;;;12.34;55.49;101186.44;10543239;28;20048;-74
2023/10/11 11:32:14;;;;;;;10.05;2.80;;;;;;;13.16;53.48;101272.94;10542412;28;20055;-73
2023/10/11 11:37:20;;;;;;;4.60;2.10;;;;;;;13.07;52.48;101217.88;10541728;28;20040;-73
2023/10/11 11:42:24;;;;;;;4.55;2.30;;;;;;;12.05;51.97;101141.50;10524495;28;20036;-74
2023/10/11 11:47:29;;;;;;;4.10;2.15;;;;;;;12.25;52.76;101222.03;10542367;28;20074;-74
2023/10/11 11:52:32;;;;;;;5.25;2.00;;;;;;;12.52;52.87;101266.31;10542183;28;20047;-74
2023/10/11 11:57:33;;;;;;;5.32;2.03;;;;;;;12.30;52.99;101209.91;10523943;28;20064;-73
2023/10/11 12:02:35;;;;;;;6.10;2.10;;;;;;;12.28;52.55;101209.22;10542259;28;20554;-73
2023/10/11 12:07:36;;;;;;;4.55;1.90;;;;;;;12.68;51.63;101281.56;10541587;28;20048;-74
2023/10/11 12:12:37;;;;;;;4.35;1.92;;;;;;;12.32;50.93;101215.06;10523230;28;20062;-73
2023/10/11 12:17:38;;;;;;;5.38;1.77;;;;;;;12.32;51.86;101212.41;10541672;28;20036;-74
2023/10/11 12:22:45;;;;;;;3.35;1.60;;;;;;;12.17;50.69;101238.78;10541941;28;20043;-73
2023/10/11 12:27:45;;;;;;;3.65;1.50;;;;;;;11.58;52.23;101200.41;10540246;28;20047;-73
2023/10/11 12:32:47;;;;;;;3.65;1.40;;;;;;;12.11;53.17;101343.28;10521868;28;20484;-73
2023/10/11 12:37:48;;;;;;;6.40;1.58;;;;;;;11.64;53.67;101282.28;10521785;28;20044;-73
2023/10/11 12:42:48;;;;;;;4.50;1.40;;;;;;;11.63;53.80;101334.66;10521982;28;20036;-73
2023/10/11 12:47:50;;;;;;;6.15;1.65;;;;;;;10.61;54.56;101209.84;10520402;28;20117;-72
2023/10/11 12:52:52;;;;;;;8.55;1.88;;;;;;;11.14;55.86;101347.41;10539469;28;20629;-73
2023/10/11 12:57:53;;;;;;;3.33;1.33;;;;;;;10.42;55.78;101255.91;10539552;28;20061;-73
2023/10/11 13:03:37;;;;;;;4.50;1.40;;;;;;;10.83;55.81;101336.22;10521205;28;20043;-73
2023/10/11 13:08:26;;;;;;;5.45;1.30;;;;;;;10.96;55.82;101354.47;10527999;28;20499;-73
2023/10/11 13:13:29;;;;;;;2.60;1.20;;;;;;;10.56;55.41;101294.47;10534753;28;20126;-73
2023/10/11 13:18:32;;;;;;;2.10;1.15;;;;;;;10.29;55.26;101255.41;10538431;28;20090;-72
2023/10/11 13:23:34;;;;;;;2.53;1.02;;;;;;;10.83;55.53;101376.06;10537449;28;20586;-73
2023/10/11 13:28:36;;;;;;;6.63;1.55;;;;;;;10.38;55.92;101334.22;10537978;28;20040;-73
2023/10/11 13:33:38;;;;;;;3.95;1.05;;;;;;;10.48;54.89;101390.81;10536421;28;20160;-73
2023/10/11 13:38:44;;;;;;;6.10;1.05;;;;;;;10.68;54.77;101447.44;10537874;28;20118;-78
2023/10/11 13:43:45;;;;;;;1.55;0.70;;;;;;;9.96;55.29;101376.13;10539025;28;20032;-74
2023/10/11 13:48:47;;;;;;;16.95;1.38;;;;;;;9.59;54.79;101352.91;10537436;28;20517;-74
2023/10/11 13:53:51;;;;;;;6.43;1.08;;;;;;;10.24;54.60;101491.31;10536706;28;20040;-73
2023/10/11 13:58:52;;;;;;;2.47;0.83;;;;;;;10.09;54.57;101508.59;10536548;28;20059;-74
2023/10/11 14:03:54;;;;;;;1.90;0.60;;;;;;;9.44;53.61;101441.78;10537876;28;20130;-74
2023/10/11 14:08:55;;;;;;;1.83;0.68;;;;;;;9.75;54.43;101525.69;10536819;28;20039;-74
2023/10/11 14:13:55;;;;;;;1.60;0.77;;;;;;;8.95;53.82;101441.56;10536686;28;20044;-74
2023/10/11 14:18:56;;;;;;;15.93;2.72;;;;;;;8.63;53.36;101421.25;10537824;28;20074;-74
2023/10/11 14:23:58;;;;;;;45.63;25.92;;;;;;;8.98;53.95;101510.19;10518998;28;20062;-75
2023/10/11 14:29:00;;;;;;;47.95;27.08;;;;;;;8.83;54.37;101522.91;10537086;28;20036;-74
2023/10/11 14:34:04;;;;;;;99.88;55.45;;;;;;;8.60;54.63;101535.41;10534003;28;20051;-73
2023/10/11 14:39:17;;;;;;;79.40;46.73;;;;;;;8.27;54.11;101519.59;10536440;28;20039;-75
2023/10/11 14:44:18;;;;;;;27.83;14.10;;;;;;;8.16;54.43;101541.63;10536176;28;20036;-74
2023/10/11 14:49:21;;;;;;;12.27;4.22;;;;;;;8.30;54.70;101598.78;10536841;28;20127;-74
2023/10/11 14:54:22;;;;;;;10.75;3.33;;;;;;;7.91;55.20;101571.84;10536333;28;20043;-75
2023/10/11 14:59:23;;;;;;;10.15;6.88;;;;;;;7.10;55.49;101470.59;10536352;28;20388;-74
2023/10/11 15:04:23;;;;;;;36.17;23.17;;;;;;;7.99;55.06;101646.19;10535032;28;20487;-73
2023/10/11 15:09:24;;;;;;;46.38;25.73;;;;;;;7.94;55.23;101650.97;10537533;28;20068;-74
2023/10/11 15:14:25;;;;;;;54.63;33.72;;;;;;;7.34;55.42;101589.44;10544001;28;20044;-77
2023/10/11 15:19:26;;;;;;;37.42;21.50;;;;;;;7.54;55.66;101630.25;10543120;28;20109;-74
2023/10/11 15:24:27;;;;;;;26.48;13.77;;;;;;;7.65;56.41;101683.16;10542903;28;20047;-74
2023/10/11 15:29:28;;;;;;;8.90;4.18;;;;;;;7.51;56.38;101704.53;10543717;28;20028;-73
2023/10/11 15:34:29;;;;;;;3.25;1.50;;;;;;;6.62;56.52;101579.81;10542969;28;20100;-75
2023/10/11 15:39:30;;;;;;;2.85;1.27;;;;;;;7.17;56.45;101709.63;10543756;28;20089;-73
2023/10/11 15:44:31;;;;;;;4.65;2.00;;;;;;;7.18;56.91;101742.19;10542402;28;20040;-74
2023/10/11 15:49:33;;;;;;;2.80;1.35;;;;;;;6.59;57.78;101664.53;10541966;28;20435;-74
2023/10/11 15:54:34;;;;;;;6.25;0.90;;;;;;;6.75;58.25;101725.00;10541130;28;20040;-74
2023/10/11 15:59:36;;;;;;;2.05;0.70;;;;;;;6.80;58.66;101766.94;10542409;28;20110;-74
2023/10/11 16:04:37;;;;;;;5.07;0.90;;;;;;;5.93;58.87;101645.41;10542247;28;20399;-74
2023/10/11 16:09:40;;;;;;;4.60;0.85;;;;;;;6.67;59.99;101795.16;10540960;28;20048;-75
2023/10/11 16:14:41;;;;;;;2.03;0.95;;;;;;;5.87;61.25;101693.28;10539732;28;20082;-74
2023/10/11 16:19:42;;;;;;;3.78;1.10;;;;;;;6.36;62.78;101806.03;10538513;28;20040;-74
2023/10/11 16:24:43;;;;;;;2.33;0.80;;;;;;;6.17;62.84;101814.38;10540996;28;20132;-72
2023/10/11 16:29:43;;;;;;;5.45;1.13;;;;;;;6.02;63.38;101820.69;10539266;28;20036;-74
2023/10/11 16:34:44;;;;;;;3.92;1.13;;;;;;;5.56;63.52;101788.53;10540771;28;20089;-73
2023/10/11 16:39:45;;;;;;;2.60;0.98;;;;;;;5.48;64.71;101821.53;10539468;28;20445;-73
2023/10/11 16:44:46;;;;;;;3.38;0.90;;;;;;;5.42;65.58;101836.88;10522219;28;20096;-75
2023/10/11 16:49:48;;;;;;;10.95;1.60;;;;;;;5.32;65.57;101848.94;10539855;28;20035;-75
2023/10/11 16:54:49;;;;;;;3.88;1.27;;;;;;;5.18;66.35;101873.53;10539639;28;20484;-73
2023/10/11 16:59:51;;;;;;;4.25;1.83;;;;;;;4.91;67.90;101891.88;10539625;28;20146;-74
2023/10/11 17:04:52;;;;;;;19.73;3.13;;;;;;;4.41;68.65;101838.69;10539479;28;20051;-73
2023/10/11 17:09:53;;;;;;;4.90;2.50;;;;;;;4.56;68.58;101903.56;10534204;28;20042;-74
2023/10/11 17:14:54;;;;;;;7.25;2.33;;;;;;;4.32;69.91;101897.97;10537663;28;20131;-74
2023/10/11 17:19:56;;;;;;;10.60;2.13;;;;;;;4.04;70.72;101882.13;10537631;28;20114;-74
2023/10/11 17:24:59;;;;;;;6.68;1.83;;;;;;;3.64;71.56;101845.75;10528214;28;20115;-80
2023/10/11 17:30:00;;;;;;;4.30;1.40;;;;;;;3.77;72.08;101906.41;10514884;28;20570;-76
2023/10/11 17:35:05;;;;;;;7.80;1.63;;;;;;;3.75;72.89;101910.88;10526648;28;20032;-76
2023/10/11 17:40:09;;;;;;;4.47;1.60;;;;;;;3.64;73.67;101932.50;10522667;28;20043;-75
2023/10/11 17:45:17;;;;;;;;;;;;;;;3.71;76.17;101940.91;10533422;28;20036;-75
2023/10/11 17:50:22;;;;;;;;;;;;;;;3.51;75.54;101939.34;10538317;28;19963;-76
2023/10/11 17:55:26;;;;;;;;;;;;;;;3.38;75.38;101948.81;10537979;28;20444;-75
2023/10/11 18:00:27;;;;;;;;;;;;;;;3.28;75.69;101960.75;10537275;28;19965;-75
2023/10/11 18:05:27;;;;;;;;;;;;;;;3.19;76.02;101962.09;10538254;28;20351;-75
2023/10/11 18:10:28;;;;;;;;;;;;;;;3.13;76.58;101965.03;10536227;28;19920;-76
2023/10/11 18:15:32;;;;;;;;;;;;;;;3.07;76.55;101971.44;10525993;28;19923;-77
2023/10/11 18:20:40;;;;;;;;;;;;;;;3.08;77.84;101970.53;10536664;28;20073;-75
2023/10/11 18:25:40;;;;;;;;;;;;;;;2.94;77.72;101980.91;10536627;28;19916;-75
2023/10/11 18:30:41;;;;;;;;;;;;;;;2.91;78.02;101991.56;10536697;28;19916;-75
2023/10/11 18:35:43;;;;;;;;;;;;;;;2.78;77.86;101996.56;10537409;28;19927;-75
2023/10/11 18:40:45;;;;;;;;;;;;;;;2.66;77.81;101989.31;10538054;28;19916;-76
2023/10/11 18:45:47;;;;;;;;;;;;;;;2.65;78.74;101985.00;10542824;28;19916;-75
2023/10/11 18:50:49;;;;;;;;;;;;;;;2.60;78.30;101998.31;10545163;28;19922;-75
2023/10/11 18:55:50;;;;;;;;;;;;;;;2.54;79.41;101996.00;10545558;28;20011;-75
2023/10/11 19:00:51;;;;;;;;;;;;;;;2.58;79.86;101994.94;10544529;28;19920;-75
2023/10/11 19:05:52;;;;;;;;;;;;;;;2.51;78.97;101996.16;10545240;28;19916;-75
2023/10/11 19:10:53;;;;;;;;;;;;;;;2.45;79.20;101994.72;10542235;28;19920;-75
2023/10/11 19:15:54;;;;;;;;;;;;;;;2.43;79.83;102004.41;10544339;28;20294;-75
2023/10/11 19:21:01;;;;;;;;;;;;;;;2.39;79.92;102007.25;10544087;28;19958;-75
2023/10/11 19:26:04;;;;;;;;;;;;;;;2.28;80.36;102003.38;10544652;28;20116;-75
2023/10/11 19:31:07;;;;;;;;;;;;;;;2.17;80.50;102003.03;10543122;28;19916;-75
2023/10/11 19:36:08;;;;;;;;;;;;;;;2.15;81.54;102004.88;10543596;28;19920;-75
2023/10/11 19:41:10;;;;;;;;;;;;;;;2.15;81.98;102009.28;10543211;28;19962;-75
2023/10/11 19:46:11;;;;;;;;;;;;;;;2.04;81.14;102015.03;10543756;28;19920;-75
2023/10/11 19:51:12;;;;;;;;;;;;;;;1.87;80.56;102017.59;10543535;28;19916;-75
2023/10/11 19:56:17;;;;;;;;;;;;;;;1.74;80.96;102015.53;10542428;28;20361;-75
2023/10/11 20:01:18;;;;;;;;;;;;;;;1.67;81.02;102010.63;10542533;28;19927;-75
2023/10/11 20:06:19;;;;;;;;;;;;;;;1.73;82.52;102013.81;10542463;28;19915;-75
2023/10/11 20:11:19;;;;;;;;;;;;;;;1.76;83.28;102024.16;10541346;28;20403;-75
2023/10/11 20:16:20;;;;;;;;;;;;;;;1.63;82.00;102025.66;10542018;28;19920;-75
2023/10/11 20:21:21;;;;;;;;;;;;;;;1.43;81.23;102023.91;10540379;28;19919;-75
2023/10/11 20:26:24;;;;;;;;;;;;;;;1.42;81.51;102021.38;10542108;28;20015;-75
2023/10/11 20:31:25;;;;;;;;;;;;;;;1.45;82.13;102016.00;10540683;28;19920;-75
2023/10/11 20:36:25;;;;;;;;;;;;;;;1.50;81.61;102029.75;10540445;28;19916;-75
2023/10/11 20:41:26;;;;;;;;;;;;;;;1.36;80.93;102038.19;10540877;28;19912;-75
2023/10/11 20:46:27;;;;;;;;;;;;;;;1.17;81.08;102038.16;10540077;28;19916;-75
2023/10/11 20:51:27;;;;;;;;;;;;;;;1.15;81.80;102034.75;10540612;28;19920;-75
2023/10/11 20:56:29;;;;;;;;;;;;;;;1.28;82.44;102028.03;10539825;28;20307;-75
2023/10/11 21:01:29;;;;;;;;;;;;;;;1.22;81.74;102045.78;10540873;28;20036;-76
2023/10/11 21:06:31;;;;;;;;;;;;;;;1.05;81.30;102059.63;10538758;28;20038;-75
2023/10/11 21:11:32;;;;;;;;;;;;;;;1.02;82.11;102065.84;10538716;28;19920;-75
2023/10/11 21:16:33;;;;;;;;;;;;;;;1.01;81.53;102071.13;10539008;28;20333;-75
2023/10/11 21:21:34;;;;;;;;;;;;;;;0.89;81.25;102080.31;10539058;28;19916;-75
2023/10/11 21:26:35;;;;;;;;;;;;;;;0.85;81.68;102074.38;10537419;28;19934;-75
2023/10/11 21:31:36;;;;;;;;;;;;;;;0.94;82.21;102072.28;10538245;28;19916;-75
2023/10/11 21:36:39;;;;;;;;;;;;;;;0.89;81.44;102075.94;10538562;28;19915;-75
2023/10/11 21:41:41;;;;;;;;;;;;;;;0.88;81.55;102074.25;10539805;28;20014;-75
2023/10/11 21:46:42;;;;;;;;;;;;;;;0.97;82.30;102073.00;10537327;28;19920;-74
2023/10/11 21:51:44;;;;;;;;;;;;;;;0.99;82.13;102086.00;10537848;28;19923;-75
2023/10/11 21:56:49;;;;;;;;;;;;;;;0.88;81.57;102078.63;10538890;28;20282;-75
2023/10/11 22:01:55;;;;;;;;;;;;;;;0.89;81.59;102080.31;10537849;28;20361;-75
2023/10/11 22:06:56;;;;;;;;;;;;;;;1.02;82.62;102091.16;10539260;28;19916;-75
2023/10/11 22:11:57;;;;;;;;;;;;;;;0.98;81.83;102081.72;10536200;28;19916;-75
2023/10/11 22:16:58;;;;;;;;;;;;;;;1.03;81.35;102080.59;10536845;28;20452;-75
2023/10/11 22:21:58;;;;;;;;;;;;;;;0.99;81.09;102086.00;10545867;28;19920;-75
2023/10/11 22:26:59;;;;;;;;;;;;;;;0.86;81.61;102093.53;10547128;28;19920;-75
2023/10/11 22:32:00;;;;;;;;;;;;;;;0.93;82.11;102091.50;10545643;28;19970;-75
2023/10/11 22:37:00;;;;;;;;;;;;;;;0.80;81.20;102092.00;10545775;28;19916;-75
2023/10/11 22:42:01;;;;;;;;;;;;;;;0.66;81.90;102089.13;10545207;28;19930;-75
2023/10/11 22:47:04;;;;;;;;;;;;;;;0.67;81.82;102082.97;10545746;28;19959;-76
2023/10/11 22:52:05;;;;;;;;;;;;;;;0.51;81.71;102087.97;10545474;28;20413;-75
2023/10/11 22:57:05;;;;;;;;;;;;;;;0.39;82.05;102093.66;10543713;28;20429;-75
2023/10/11 23:02:07;;;;;;;;;;;;;;;0.34;82.36;102082.53;10544494;28;20014;-75
2023/10/11 23:07:09;;;;;;;;;;;;;;;0.39;82.74;102085.81;10545354;28;20034;-75
2023/10/11 23:12:09;;;;;;;;;;;;;;;0.39;82.63;102098.88;10545326;28;19930;-75
2023/10/11 23:17:14;;;;;;;;;;;;;;;0.32;82.88;102095.66;10543634;28;19916;-75
2023/10/11 23:22:23;;;;;;;;;;;;;;;0.27;82.94;102086.28;10544064;28;19916;-75
2023/10/11 23:27:28;;;;;;;;;;;;;;;0.24;82.80;102082.06;10543187;28;20007;-75
2023/10/11 23:32:28;;;;;;;;;;;;;;;0.25;83.46;102081.13;10542467;28;19924;-75
2023/10/11 23:37:29;;;;;;;;;;;;;;;0.08;82.98;102075.69;10543942;28;20010;-75
2023/10/11 23:42:33;;;;;;;;;;;;;;;0.05;82.97;102073.19;10543325;28;19916;-75
2023/10/11 23:47:45;;;;;;;;;;;;;;;0.06;83.13;102077.50;10543820;28;20015;-75
2023/10/11 23:52:56;;;;;;;;;;;;;;;0.05;83.25;102086.25;10543041;28;19969;-75
2023/10/11 23:58:04;;;;;;;;;;;;;;;-0.07;83.65;102092.78;10541514;28;20390;-75
